Time;durP1;ratioP1;P1;durP2;ratioP2;P2;SDS_P1;SDS_P2;PMS_P1;PMS_P2;Temp;Humidity;BMP_temperature;BMP_pressure;BME280_temperature;BME280_humidity;BME280_pressure;Samples;Min_cycle;Max_cycle;Signal;HPM_P1;HPM_P2
2022/11/07 00:01:48;;;;;;;7.78;1.50;;;8.10;99.90;;;;;;5026446;28;20068;-68
2022/11/07 00:04:15;;;;;;;9.88;1.60;;;8.20;99.90;;;;;;5027300;28;20041;-64
2022/11/07 00:06:43;;;;;;;10.52;1.98;;;8.20;99.90;;;;;;5027974;28;20141;-66
2022/11/07 00:09:11;;;;;;;6.38;1.23;;;8.30;99.90;;;;;;5027197;28;20041;-66
2022/11/07 00:11:39;;;;;;;10.60;1.58;;;8.30;99.90;;;;;;5021327;28;20049;-65
2022/11/07 00:14:06;;;;;;;10.88;1.48;;;8.30;99.90;;;;;;5021720;28;20064;-67
2022/11/07 00:16:34;;;;;;;11.18;2.42;;;8.40;99.90;;;;;;5029502;28;20500;-71
2022/11/07 00:19:02;;;;;;;7.25;1.90;;;8.40;99.90;;;;;;5030512;28;20049;-72
2022/11/07 00:21:29;;;;;;;9.27;1.45;;;8.40;99.90;;;;;;5030538;28;20049;-70
2022/11/07 00:23:57;;;;;;;6.88;1.15;;;8.40;99.90;;;;;;5030099;28;20050;-73
2022/11/07 00:26:25;;;;;;;6.35;0.90;;;8.40;99.90;;;;;;5027166;28;20040;-62
2022/11/07 00:28:52;;;;;;;8.88;1.30;;;8.40;99.90;;;;;;5022587;28;20045;-62
2022/11/07 00:31:20;;;;;;;7.88;1.15;;;8.30;99.90;;;;;;5030358;28;20049;-60
2022/11/07 00:33:48;;;;;;;10.35;1.38;;;8.30;99.90;;;;;;5029952;28;20049;-61
2022/11/07 00:36:24;;;;;;;12.77;1.50;;;8.30;99.90;;;;;;5030396;28;20489;-61
2022/11/07 00:38:53;;;;;;;13.38;1.60;;;8.20;99.90;;;;;;5028780;28;20049;-62
2022/11/07 00:41:21;;;;;;;9.18;1.00;;;8.20;99.90;;;;;;5028570;28;20038;-61
2022/11/07 00:43:50;;;;;;;8.27;2.00;;;8.10;99.90;;;;;;5017242;28;20049;-62
2022/11/07 00:46:18;;;;;;;13.63;1.77;;;8.00;99.90;;;;;;5029125;28;20619;-62
2022/11/07 00:48:46;;;;;;;12.07;1.30;;;7.90;99.90;;;;;;5029763;28;20045;-62
2022/11/07 00:51:15;;;;;;;9.90;2.40;;;7.90;99.90;;;;;;5029933;28;20168;-61
2022/11/07 00:53:44;;;;;;;11.13;2.42;;;7.80;99.90;;;;;;5029754;28;20056;-62
2022/11/07 00:56:13;;;;;;;11.98;1.85;;;7.70;99.90;;;;;;5029974;28;20398;-61
2022/11/07 00:58:43;;;;;;;14.23;1.35;;;7.70;99.90;;;;;;5020899;28;20623;-64
2022/11/07 01:01:16;;;;;;;2.80;0.95;;;7.60;99.90;;;;;;5029450;28;20056;-62
2022/11/07 01:06:34;;;;;;;6.55;0.80;;;7.60;99.90;;;;;;5027399;28;20050;-61
2022/11/07 01:09:08;;;;;;;3.42;0.52;;;7.60;99.90;;;;;;5029447;28;20045;-61
2022/11/07 01:11:38;;;;;;;15.00;1.80;;;7.60;99.90;;;;;;5027927;28;20378;-60
2022/11/07 01:14:07;;;;;;;17.00;1.20;;;7.70;99.90;;;;;;5019788;28;20053;-61
2022/11/07 01:16:37;;;;;;;10.18;1.40;;;7.70;99.90;;;;;;5029151;28;20046;-61
2022/11/07 01:19:06;;;;;;;10.98;2.15;;;7.80;99.90;;;;;;5029145;28;20049;-61
2022/11/07 01:21:35;;;;;;;10.52;1.23;;;7.70;99.90;;;;;;5029322;28;20300;-61
2022/11/07 01:24:03;;;;;;;6.07;0.93;;;7.70;99.90;;;;;;5029189;28;20049;-70
2022/11/07 01:26:31;;;;;;;4.57;1.17;;;7.80;99.90;;;;;;5029435;28;20057;-63
2022/11/07 01:28:59;;;;;;;8.48;1.25;;;7.80;99.90;;;;;;5027652;28;20041;-62
2022/11/07 01:31:26;;;;;;;11.07;1.17;;;7.80;99.90;;;;;;5028998;28;20045;-63
2022/11/07 01:33:54;;;;;;;7.38;1.30;;;7.80;99.90;;;;;;5027524;28;20065;-73
2022/11/07 01:36:22;;;;;;;7.95;1.33;;;7.80;99.90;;;;;;5029465;28;20258;-68
2022/11/07 01:38:49;;;;;;;11.32;1.00;;;7.70;99.90;;;;;;5028163;28;20053;-69
2022/11/07 01:41:24;;;;;;;9.38;1.20;;;7.70;99.90;;;;;;5028067;28;20049;-72
2022/11/07 01:44:03;;;;;;;6.90;1.30;;;7.60;99.90;;;;;;5018894;28;20161;-69
2022/11/07 01:46:40;;;;;;;8.45;1.63;;;7.60;99.90;;;;;;5028739;28;20052;-64
2022/11/07 01:49:35;;;;;;;9.02;1.38;;;7.50;99.90;;;;;;5026845;28;20393;-72
2022/11/07 01:52:27;;;;;;;6.05;0.80;;;7.40;99.90;;;;;;5008168;28;20050;-63
2022/11/07 01:55:07;;;;;;;12.00;1.35;;;7.30;99.90;;;;;;5025429;28;20041;-63
2022/11/07 01:57:45;;;;;;;7.88;1.00;;;7.30;99.90;;;;;;5024196;28;20045;-63
2022/11/07 02:00:17;;;;;;;6.65;0.98;;;7.20;99.90;;;;;;5025786;28;20409;-64
2022/11/07 02:02:47;;;;;;;13.23;1.35;;;7.10;99.90;;;;;;5025265;28;20397;-63
2022/11/07 02:05:27;;;;;;;13.50;1.75;;;7.00;99.90;;;;;;5024980;28;20045;-66
2022/11/07 02:07:59;;;;;;;13.82;1.63;;;7.00;99.90;;;;;;5025388;28;20041;-63
2022/11/07 02:10:27;;;;;;;11.20;1.45;;;7.00;99.90;;;;;;5024144;28;20489;-64
2022/11/07 02:12:57;;;;;;;15.30;1.70;;;6.90;99.90;;;;;;5017115;28;20091;-63
2022/11/07 02:15:25;;;;;;;8.10;1.33;;;6.90;99.90;;;;;;5023954;28;20045;-66
2022/11/07 02:17:54;;;;;;;10.50;1.25;;;6.90;99.90;;;;;;5025387;28;20046;-63
2022/11/07 02:20:22;;;;;;;13.88;1.50;;;6.80;99.90;;;;;;5025158;28;20053;-62
2022/11/07 02:23:02;;;;;;;7.15;1.25;;;6.80;99.90;;;;;;5025032;28;20064;-62
2022/11/07 02:25:30;;;;;;;9.95;1.80;;;6.80;99.90;;;;;;5025018;28;20053;-69
2022/11/07 02:28:00;;;;;;;10.50;1.55;;;6.70;99.90;;;;;;5021784;28;20053;-62
2022/11/07 02:30:32;;;;;;;17.05;1.98;;;6.70;99.90;;;;;;5024660;28;20542;-67
2022/11/07 02:33:01;;;;;;;12.23;1.65;;;6.70;99.90;;;;;;5019372;28;20049;-66
2022/11/07 02:35:33;;;;;;;13.82;1.90;;;6.70;99.90;;;;;;5028153;28;20053;-68
2022/11/07 02:38:04;;;;;;;19.55;1.95;;;6.70;99.90;;;;;;5027999;28;20087;-72
2022/11/07 02:40:32;;;;;;;11.55;1.40;;;6.80;99.90;;;;;;5028366;28;20498;-69
2022/11/07 02:43:00;;;;;;;9.43;1.65;;;6.80;99.90;;;;;;5023197;28;20414;-67
2022/11/07 02:45:38;;;;;;;10.43;1.70;;;6.90;99.90;;;;;;5008413;28;20042;-69
2022/11/07 02:48:06;;;;;;;7.18;1.25;;;7.00;99.90;;;;;;5010180;28;20049;-63
2022/11/07 02:50:33;;;;;;;7.30;1.42;;;7.00;99.90;;;;;;5009649;28;20371;-63
2022/11/07 02:53:01;;;;;;;11.50;1.80;;;7.10;99.90;;;;;;5014957;28;20066;-62
2022/11/07 02:55:28;;;;;;;16.63;2.55;;;7.10;99.90;;;;;;5015024;28;20045;-65
2022/11/07 02:57:56;;;;;;;10.30;2.28;;;7.20;99.90;;;;;;5014793;28;20501;-63
2022/11/07 03:00:24;;;;;;;18.05;2.17;;;7.20;99.90;;;;;;5014364;28;20600;-62
2022/11/07 03:02:52;;;;;;;12.18;1.63;;;7.30;99.90;;;;;;5024514;28;20052;-62
2022/11/07 03:05:19;;;;;;;10.10;1.73;;;7.40;99.90;;;;;;5032860;28;20057;-65
2022/11/07 03:07:48;;;;;;;15.30;1.30;;;7.40;99.90;;;;;;5033802;28;20046;-62
2022/11/07 03:10:17;;;;;;;12.27;1.30;;;7.60;99.90;;;;;;5034599;28;20876;-63
2022/11/07 03:12:45;;;;;;;9.20;0.90;;;7.70;99.90;;;;;;5033493;28;20057;-63
2022/11/07 03:15:13;;;;;;;13.63;2.20;;;7.70;99.90;;;;;;5030580;28;20486;-63
2022/11/07 03:17:41;;;;;;;10.88;1.30;;;7.80;99.90;;;;;;5017033;28;20375;-62
2022/11/07 03:20:09;;;;;;;14.60;2.75;;;7.90;99.90;;;;;;5034600;28;20388;-62
2022/11/07 03:22:37;;;;;;;12.43;0.95;;;8.00;99.90;;;;;;5033462;28;20045;-63
2022/11/07 03:25:06;;;;;;;15.30;1.42;;;8.10;99.90;;;;;;5036472;28;20056;-63
2022/11/07 03:27:34;;;;;;;5.63;1.30;;;8.10;99.90;;;;;;5037694;28;20045;-62
2022/11/07 03:30:01;;;;;;;10.88;0.75;;;8.20;99.90;;;;;;5037744;28;20382;-62
2022/11/07 03:32:29;;;;;;;9.02;1.23;;;8.20;99.90;;;;;;5036541;28;20042;-64
2022/11/07 03:34:56;;;;;;;14.52;1.55;;;8.30;99.90;;;;;;5037630;28;20506;-64
2022/11/07 03:37:24;;;;;;;12.10;1.90;;;8.30;99.90;;;;;;5037356;28;20517;-64
2022/11/07 03:39:51;;;;;;;12.60;1.20;;;8.30;99.90;;;;;;5037443;28;20397;-66
2022/11/07 03:42:19;;;;;;;9.20;1.15;;;;;;;;;;5037603;28;20041;-64
2022/11/07 03:44:47;;;;;;;13.98;1.42;;;8.40;99.90;;;;;;5037515;28;20045;-64
2022/11/07 03:47:14;;;;;;;10.30;2.15;;;8.40;99.90;;;;;;5037603;28;20404;-64
2022/11/07 03:49:42;;;;;;;9.52;1.40;;;8.40;99.90;;;;;;5036325;28;20068;-66
2022/11/07 03:52:09;;;;;;;9.63;1.73;;;8.40;99.90;;;;;;5032728;28;20069;-64
2022/11/07 03:54:37;;;;;;;14.57;1.80;;;8.40;99.90;;;;;;5037427;28;20045;-68
2022/11/07 03:57:04;;;;;;;6.80;1.35;;;8.40;99.90;;;;;;5037510;28;20062;-63
2022/11/07 03:59:32;;;;;;;13.07;1.70;;;8.40;99.90;;;;;;5037534;28;20053;-64
2022/11/07 04:01:59;;;;;;;11.73;2.30;;;8.50;99.90;;;;;;5035737;28;20056;-65
2022/11/07 04:04:27;;;;;;;18.45;2.30;;;8.50;99.90;;;;;;5033998;28;20053;-63
2022/11/07 04:06:55;;;;;;;14.07;2.50;;;8.50;99.90;;;;;;5034325;28;20428;-63
2022/11/07 04:09:22;;;;;;;17.45;1.83;;;8.50;99.90;;;;;;5032966;28;20044;-63
2022/11/07 04:17:23;;;;;;;16.63;1.50;;;8.60;99.90;;;;;;5034135;28;20041;-72
2022/11/07 04:19:54;;;;;;;15.30;2.40;;;8.70;99.90;;;;;;5034041;28;20409;-72
2022/11/07 04:22:24;;;;;;;12.85;1.70;;;8.70;99.90;;;;;;5033967;28;20508;-72
2022/11/07 04:24:51;;;;;;;19.98;1.67;;;8.70;99.90;;;;;;5033837;28;20052;-72
2022/11/07 04:30:20;;;;;;;10.32;1.98;;;8.70;99.90;;;;;;5033879;28;20065;-72
2022/11/07 04:32:58;;;;;;;12.68;1.92;;;8.70;99.90;;;;;;5033746;28;20041;-72
2022/11/07 04:35:29;;;;;;;7.18;2.08;;;8.70;99.90;;;;;;5033873;28;20046;-71
2022/11/07 04:37:58;;;;;;;27.73;2.33;;;8.80;99.90;;;;;;5033556;28;20041;-71
2022/11/07 04:40:27;;;;;;;13.95;2.70;;;8.80;99.90;;;;;;5033544;28;20509;-71
2022/11/07 04:42:54;;;;;;;10.87;1.90;;;8.80;99.90;;;;;;5033621;28;20052;-65
2022/11/07 04:45:22;;;;;;;19.98;2.03;;;8.80;99.90;;;;;;5033444;28;20069;-62
2022/11/07 04:47:50;;;;;;;14.15;2.13;;;8.80;99.90;;;;;;5033674;28;20041;-66
2022/11/07 04:50:19;;;;;;;14.35;1.80;;;8.80;99.90;;;;;;5033322;28;20485;-64
2022/11/07 04:52:46;;;;;;;8.88;1.80;;;8.80;99.90;;;;;;5032953;28;20516;-62
2022/11/07 04:55:26;;;;;;;11.95;1.80;;;8.80;99.90;;;;;;5033271;28;20038;-68
2022/11/07 04:57:54;;;;;;;16.95;1.40;;;8.80;99.90;;;;;;5033201;28;20045;-65
2022/11/07 05:00:22;;;;;;;12.23;1.80;;;8.80;99.90;;;;;;5032279;28;20041;-62
2022/11/07 05:02:50;;;;;;;16.15;2.38;;;8.90;99.90;;;;;;5033455;28;20049;-61
2022/11/07 05:05:18;;;;;;;16.30;1.48;;;8.80;99.90;;;;;;5033002;28;20386;-63
2022/11/07 05:07:46;;;;;;;10.15;1.23;;;8.80;99.90;;;;;;5033124;28;20043;-60
2022/11/07 05:10:23;;;;;;;17.80;1.35;;;8.90;99.90;;;;;;5031788;28;20053;-68
2022/11/07 05:12:51;;;;;;;9.48;1.38;;;8.80;99.90;;;;;;5032748;28;20049;-64
2022/11/07 05:15:19;;;;;;;16.83;1.90;;;8.80;99.90;;;;;;5031723;28;20510;-64
2022/11/07 05:17:47;;;;;;;27.35;3.47;;;8.80;99.90;;;;;;5032909;28;20064;-67
2022/11/07 05:20:31;;;;;;;13.10;1.88;;;8.80;99.90;;;;;;5033124;28;20044;-63
2022/11/07 05:23:11;;;;;;;9.88;2.35;;;8.80;99.90;;;;;;5032934;28;20046;-61
2022/11/07 05:25:51;;;;;;;12.27;1.75;;;8.90;99.90;;;;;;5032668;28;20486;-61
2022/11/07 05:28:24;;;;;;;10.52;2.80;;;8.90;99.90;;;;;;5032600;28;20478;-64
2022/11/07 05:31:02;;;;;;;10.68;1.50;;;8.90;99.90;;;;;;5032730;28;20046;-61
2022/11/07 05:33:30;;;;;;;10.90;1.83;;;8.90;99.90;;;;;;5032685;28;20049;-61
2022/11/07 05:36:11;;;;;;;19.60;3.10;;;8.90;99.90;;;;;;5032649;28;20485;-62
2022/11/07 05:38:44;;;;;;;7.47;1.65;;;8.90;99.90;;;;;;5032313;28;20046;-61
2022/11/07 05:41:12;;;;;;;9.70;1.70;;;8.90;99.90;;;;;;5032366;28;20072;-61
2022/11/07 05:43:40;;;;;;;10.88;1.58;;;8.90;99.90;;;;;;5032373;28;20508;-62
2022/11/07 05:46:08;;;;;;;11.77;1.88;;;9.00;99.90;;;;;;5032502;28;20054;-61
2022/11/07 05:48:36;;;;;;;12.10;2.20;;;8.90;99.90;;;;;;5014391;28;20053;-61
2022/11/07 05:51:05;;;;;;;12.68;2.08;;;9.00;99.90;;;;;;5016925;28;20501;-60
2022/11/07 05:53:33;;;;;;;16.90;2.63;;;9.00;99.90;;;;;;5020616;28;20050;-61
2022/11/07 05:56:02;;;;;;;9.18;1.48;;;9.00;99.90;;;;;;5009057;28;20049;-62
2022/11/07 05:58:29;;;;;;;11.68;1.80;;;9.00;99.90;;;;;;5013941;28;20085;-61
2022/11/07 06:01:05;;;;;;;11.60;1.75;;;9.00;99.90;;;;;;5007755;28;20057;-64
2022/11/07 06:03:32;;;;;;;11.63;2.10;;;9.10;99.90;;;;;;5015927;28;20056;-60
2022/11/07 06:06:01;;;;;;;10.23;1.40;;;9.10;99.90;;;;;;5025559;28;20041;-61
2022/11/07 06:08:28;;;;;;;11.18;1.80;;;9.20;99.90;;;;;;5024972;28;20045;-60
2022/11/07 06:10:56;;;;;;;13.88;2.45;;;9.10;99.90;;;;;;5024554;28;20048;-61
2022/11/07 06:13:24;;;;;;;14.98;2.20;;;9.20;99.90;;;;;;5028184;28;20398;-60
2022/11/07 06:15:51;;;;;;;21.35;2.83;;;9.30;99.90;;;;;;5026189;28;20056;-62
2022/11/07 06:18:20;;;;;;;10.50;1.73;;;9.20;99.90;;;;;;5015941;28;20045;-61
2022/11/07 06:20:48;;;;;;;13.57;1.98;;;9.20;99.90;;;;;;5004597;28;20050;-62
2022/11/07 06:23:16;;;;;;;12.05;2.00;;;9.30;99.90;;;;;;5019504;28;20049;-61
2022/11/07 06:25:44;;;;;;;10.88;3.10;;;9.30;99.90;;;;;;5027774;28;20048;-62
2022/11/07 06:28:13;;;;;;;28.15;2.35;;;9.30;99.90;;;;;;5028335;28;20049;-61
2022/11/07 06:30:41;;;;;;;21.90;2.33;;;9.30;99.90;;;;;;5027526;28;20049;-63
2022/11/07 06:33:16;;;;;;;14.38;2.67;;;9.40;99.90;;;;;;5023727;28;20065;-65
2022/11/07 06:35:46;;;;;;;26.73;2.67;;;9.40;99.90;;;;;;5025347;28;20054;-61
2022/11/07 06:38:14;;;;;;;16.60;3.17;;;9.40;99.90;;;;;;5028228;28;20381;-61
2022/11/07 06:40:42;;;;;;;21.92;2.92;;;9.50;99.90;;;;;;5027398;28;20055;-62
2022/11/07 06:43:16;;;;;;;15.25;2.20;;;9.50;99.90;;;;;;5024776;28;20437;-61
2022/11/07 06:45:46;;;;;;;29.70;3.50;;;9.50;99.90;;;;;;5024997;28;20042;-61
2022/11/07 06:48:14;;;;;;;19.05;3.38;;;9.50;99.90;;;;;;5022125;28;20042;-60
2022/11/07 06:50:41;;;;;;;20.58;2.97;;;9.60;99.90;;;;;;5008387;28;20041;-63
2022/11/07 06:53:11;;;;;;;25.88;3.33;;;9.60;99.90;;;;;;5017031;28;20069;-62
2022/11/07 06:55:39;;;;;;;19.45;3.92;;;10.30;99.90;;;;;;5028116;28;20053;-61
2022/11/07 06:58:07;;;;;;;18.77;3.53;;;9.60;99.90;;;;;;5027798;28;20053;-62
2022/11/07 07:00:35;;;;;;;20.63;2.75;;;9.60;99.90;;;;;;5027807;28;20041;-64
2022/11/07 07:03:03;;;;;;;22.13;4.70;;;9.70;99.90;;;;;;5020725;28;20485;-71
2022/11/07 07:05:32;;;;;;;18.58;3.20;;;9.70;99.90;;;;;;5004963;28;20397;-72
2022/11/07 07:08:00;;;;;;;33.08;5.28;;;9.70;99.90;;;;;;5017213;28;20125;-71
2022/11/07 07:10:28;;;;;;;23.58;3.08;;;9.70;99.90;;;;;;5027899;28;20050;-71
2022/11/07 07:12:56;;;;;;;24.77;3.53;;;9.80;99.90;;;;;;5027581;28;20046;-71
2022/11/07 07:15:24;;;;;;;24.75;3.60;;;9.80;99.90;;;;;;5021796;28;20056;-71
2022/11/07 07:17:51;;;;;;;30.30;3.53;;;9.90;99.90;;;;;;5022521;28;20062;-71
2022/11/07 07:20:19;;;;;;;23.75;3.83;;;9.90;99.90;;;;;;5004947;28;20513;-72
2022/11/07 07:22:47;;;;;;;24.90;4.28;;;9.90;99.90;;;;;;5014371;28;20049;-72
2022/11/07 07:25:25;;;;;;;25.08;3.33;;;9.90;99.90;;;;;;5027688;28;20057;-69
2022/11/07 07:27:52;;;;;;;18.60;2.53;;;10.00;99.90;;;;;;5027634;28;20045;-71
2022/11/07 07:30:20;;;;;;;26.77;3.42;;;10.00;99.90;;;;;;5027291;28;20057;-67
2022/11/07 07:32:48;;;;;;;22.17;3.00;;;10.10;99.90;;;;;;5023908;28;20053;-63
2022/11/07 07:35:15;;;;;;;27.48;3.00;;;10.10;99.90;;;;;;5004991;28;20049;-69
2022/11/07 07:37:43;;;;;;;21.77;3.00;;;10.10;99.90;;;;;;5015125;28;20037;-63
2022/11/07 07:40:11;;;;;;;23.33;2.50;;;10.20;99.90;;;;;;5028493;28;20076;-63
2022/11/07 07:42:42;;;;;;;17.70;3.05;;;10.20;99.90;;;;;;5027850;28;20042;-67
2022/11/07 07:45:12;;;;;;;26.55;4.07;;;10.20;99.90;;;;;;5027969;28;20049;-67
2022/11/07 07:47:40;;;;;;;21.67;2.78;;;10.20;99.90;;;;;;5025395;28;20049;-62
2022/11/07 07:50:10;;;;;;;22.40;3.00;;;10.30;99.90;;;;;;5010283;28;20494;-64
2022/11/07 07:52:38;;;;;;;17.75;2.28;;;10.30;99.90;;;;;;5016514;28;20049;-67
2022/11/07 07:55:10;;;;;;;22.05;2.70;;;10.30;99.90;;;;;;5020940;28;20058;-66
2022/11/07 07:57:39;;;;;;;24.38;3.17;;;10.30;99.90;;;;;;5025367;28;20050;-65
2022/11/07 08:00:08;;;;;;;30.45;2.97;;;10.30;99.90;;;;;;5014587;28;20513;-61
2022/11/07 08:02:42;;;;;;;25.17;2.88;;;10.30;99.90;;;;;;5011708;28;20052;-62
2022/11/07 08:05:14;;;;;;;23.02;3.30;;;10.30;99.90;;;;;;5010246;28;20490;-62
2022/11/07 08:07:50;;;;;;;26.30;3.47;;;10.30;99.90;;;;;;5026681;28;20056;-62
2022/11/07 08:10:18;;;;;;;19.38;3.63;;;10.30;99.90;;;;;;5011827;28;20787;-60
2022/11/07 08:13:06;;;;;;;32.33;3.55;;;10.30;99.90;;;;;;5014294;28;20045;-62
2022/11/07 08:15:34;;;;;;;16.40;3.10;;;10.30;99.90;;;;;;5014767;28;20046;-63
2022/11/07 08:18:03;;;;;;;19.15;3.03;;;10.30;99.90;;;;;;5014817;28;20504;-63
2022/11/07 08:20:31;;;;;;;26.95;2.72;;;10.40;99.90;;;;;;5010657;28;20049;-61
2022/11/07 08:23:02;;;;;;;21.50;3.13;;;10.40;99.90;;;;;;5018585;28;20041;-62
2022/11/07 08:25:31;;;;;;;18.60;2.70;;;10.40;99.90;;;;;;5030293;28;20397;-62
2022/11/07 08:27:59;;;;;;;19.60;3.60;;;10.40;99.90;;;;;;5022378;28;20382;-61
2022/11/07 08:30:27;;;;;;;21.67;3.17;;;10.40;99.90;;;;;;5014460;28;20393;-61
2022/11/07 08:32:58;;;;;;;18.77;4.28;;;10.40;99.90;;;;;;5020362;28;20053;-61
2022/11/07 08:35:30;;;;;;;21.90;2.58;;;10.50;99.90;;;;;;5025045;28;20049;-61
2022/11/07 08:37:58;;;;;;;21.52;3.13;;;10.50;99.90;;;;;;5019001;28;20053;-61
2022/11/07 08:40:26;;;;;;;23.38;5.05;;;10.50;99.90;;;;;;5011332;28;20050;-61
2022/11/07 08:42:59;;;;;;;19.77;2.78;;;10.50;99.90;;;;;;5017299;28;20049;-61
2022/11/07 08:45:26;;;;;;;25.98;2.83;;;10.60;99.90;;;;;;5030147;28;20037;-61
2022/11/07 08:47:58;;;;;;;38.33;4.40;;;10.60;99.90;;;;;;5029372;28;20045;-63
2022/11/07 08:50:27;;;;;;;42.20;5.13;;;10.60;99.90;;;;;;5014552;28;20112;-61
2022/11/07 08:52:54;;;;;;;28.70;3.10;;;10.70;99.90;;;;;;5017411;28;20046;-61
2022/11/07 08:55:29;;;;;;;19.05;3.05;;;10.70;99.90;;;;;;5028777;28;20050;-62
2022/11/07 08:57:59;;;;;;;19.10;2.47;;;10.80;99.90;;;;;;5010192;28;20501;-63
2022/11/07 09:00:27;;;;;;;18.13;2.85;;;10.90;99.90;;;;;;5021006;28;20485;-62
2022/11/07 09:02:54;;;;;;;25.27;3.85;;;10.80;99.90;;;;;;5028409;28;20038;-61
2022/11/07 09:05:42;;;;;;;21.23;4.35;;;10.90;99.90;;;;;;5027547;28;20052;-61
2022/11/07 09:08:09;;;;;;;24.35;3.13;;;10.90;99.90;;;;;;5024345;28;20044;-61
2022/11/07 09:10:37;;;;;;;19.25;2.78;;;11.00;99.90;;;;;;5011414;28;20058;-62
2022/11/07 09:13:04;;;;;;;29.20;2.83;;;11.00;99.90;;;;;;5016690;28;20045;-63
2022/11/07 09:15:32;;;;;;;21.90;3.45;;;11.00;99.90;;;;;;5021061;28;20057;-65
2022/11/07 09:18:04;;;;;;;22.27;3.00;;;11.10;99.90;;;;;;5012987;28;20061;-61
2022/11/07 09:20:33;;;;;;;20.15;2.97;;;11.10;99.90;;;;;;5012326;28;20048;-62
2022/11/07 09:23:00;;;;;;;17.77;3.42;;;11.10;99.90;;;;;;5022730;28;20041;-62
2022/11/07 09:25:28;;;;;;;25.27;3.83;;;11.10;99.90;;;;;;5015658;28;20076;-61
2022/11/07 09:28:01;;;;;;;17.00;3.00;;;11.20;99.90;;;;;;5016483;28;20053;-65
2022/11/07 09:30:30;;;;;;;27.75;3.17;;;11.30;99.90;;;;;;5012074;28;20042;-63
2022/11/07 09:32:58;;;;;;;27.30;2.90;;;11.30;99.90;;;;;;5018597;28;20060;-62
2022/11/07 09:35:26;;;;;;;21.45;3.00;;;11.30;99.90;;;;;;5025229;28;20033;-63
2022/11/07 09:37:54;;;;;;;22.23;3.58;;;11.30;99.90;;;;;;5021083;28;20084;-61
2022/11/07 09:40:39;;;;;;;20.17;2.58;;;11.40;99.90;;;;;;5012776;28;20049;-61
2022/11/07 09:43:26;;;;;;;18.35;2.45;;;11.40;99.90;;;;;;5014987;28;20053;-63
2022/11/07 09:45:57;;;;;;;24.88;2.65;;;11.50;99.90;;;;;;5020844;28;20052;-64
2022/11/07 09:48:30;;;;;;;29.20;3.35;;;11.50;99.90;;;;;;5018134;28;20382;-63
2022/11/07 09:50:58;;;;;;;19.42;2.50;;;11.50;99.90;;;;;;5008012;28;20057;-63
2022/11/07 09:53:41;;;;;;;17.00;2.47;;;11.50;99.90;;;;;;5016076;28;20045;-72
2022/11/07 09:56:11;;;;;;;19.05;3.97;;;11.60;99.90;;;;;;5017217;28;20049;-70
2022/11/07 09:58:44;;;;;;;25.45;4.65;;;11.60;99.90;;;;;;5027666;28;20049;-66
2022/11/07 10:01:16;;;;;;;23.40;3.45;;;11.60;99.90;;;;;;5016484;28;20048;-70
2022/11/07 10:03:44;;;;;;;19.98;2.60;;;11.60;99.90;;;;;;5024643;28;20049;-72
2022/11/07 10:06:41;;;;;;;13.75;2.10;;;11.70;99.90;;;;;;5027423;28;20041;-65
2022/11/07 10:09:31;;;;;;;20.23;2.55;;;11.70;99.90;;;;;;5024537;28;20045;-64
2022/11/07 10:12:08;;;;;;;20.40;2.58;;;11.70;99.90;;;;;;5028926;28;20053;-66
2022/11/07 10:14:57;;;;;;;25.58;2.83;;;11.70;99.90;;;;;;5019410;28;20478;-71
2022/11/07 10:17:46;;;;;;;21.80;2.75;;;11.70;99.90;;;;;;5020336;28;20046;-71
2022/11/07 10:20:47;;;;;;;20.30;2.80;;;11.70;99.90;;;;;;5021315;28;20049;-61
2022/11/07 10:23:20;;;;;;;21.75;2.90;;;11.70;99.90;;;;;;5022644;28;20045;-62
2022/11/07 10:25:51;;;;;;;21.55;3.97;;;11.70;99.90;;;;;;5011678;28;20046;-63
2022/11/07 10:28:19;;;;;;;15.48;2.05;;;11.70;99.90;;;;;;5015436;28;20089;-65
2022/11/07 10:30:50;;;;;;;15.77;2.20;;;11.70;99.90;;;;;;5007578;28;20049;-68
2022/11/07 10:33:47;;;;;;;20.52;2.63;;;11.70;99.90;;;;;;5015740;28;20372;-62
2022/11/07 10:36:22;;;;;;;16.33;2.10;;;11.70;99.90;;;;;;5007239;28;20042;-61
2022/11/07 10:38:50;;;;;;;25.95;3.05;;;11.70;99.90;;;;;;5012529;28;20050;-62
2022/11/07 10:41:22;;;;;;;20.70;3.13;;;11.80;99.90;;;;;;5018920;28;20044;-61
2022/11/07 10:43:58;;;;;;;18.75;3.55;;;11.80;99.90;;;;;;5016173;28;20049;-61
2022/11/07 10:46:38;;;;;;;15.65;2.80;;;11.80;99.90;;;;;;5011283;28;20540;-61
2022/11/07 10:49:24;;;;;;;15.35;2.55;;;11.90;99.90;;;;;;5024556;28;20045;-61
2022/11/07 10:51:53;;;;;;;11.23;2.08;;;11.90;99.90;;;;;;5012085;28;20045;-61
2022/11/07 10:54:30;;;;;;;12.85;2.20;;;12.00;99.90;;;;;;5017205;28;20387;-61
2022/11/07 10:57:04;;;;;;;16.17;1.95;;;12.00;99.90;;;;;;5006816;28;20056;-64
2022/11/07 10:59:35;;;;;;;20.65;2.53;;;12.00;99.90;;;;;;5014713;28;20045;-61
2022/11/07 11:02:20;;;;;;;21.35;2.38;;;12.10;99.90;;;;;;5015925;28;20053;-60
2022/11/07 11:04:56;;;;;;;10.43;3.35;;;12.10;99.90;;;;;;5023269;28;20042;-61
2022/11/07 11:07:32;;;;;;;13.55;2.30;;;12.20;99.90;;;;;;5012523;28;20046;-61
2022/11/07 11:10:00;;;;;;;14.13;2.35;;;12.20;99.90;;;;;;5024505;28;20046;-60
2022/11/07 11:12:31;;;;;;;19.33;2.90;;;12.30;99.90;;;;;;5011722;28;20053;-65
2022/11/07 11:15:18;;;;;;;18.23;2.20;;;12.30;99.90;;;;;;5031262;28;20485;-63
2022/11/07 11:17:54;;;;;;;17.65;3.05;;;12.30;99.90;;;;;;5018245;28;20061;-62
2022/11/07 11:20:39;;;;;;;13.10;2.28;;;12.30;99.90;;;;;;5017227;28;20046;-61
2022/11/07 11:23:18;;;;;;;15.95;3.13;;;12.40;99.90;;;;;;5015883;28;20038;-65
2022/11/07 11:25:48;;;;;;;16.17;1.70;;;12.40;99.90;;;;;;5018347;28;20046;-64
2022/11/07 11:28:57;;;;;;;18.10;3.22;;;12.40;99.90;;;;;;5019778;28;20046;-62
2022/11/07 11:31:25;;;;;;;16.35;2.95;;;12.40;99.90;;;;;;5016065;28;20060;-62
2022/11/07 11:34:25;;;;;;;10.70;2.15;;;12.50;99.90;;;;;;5027066;28;20056;-62
2022/11/07 11:36:59;;;;;;;;;;;12.50;99.90;;;;;;5011126;28;20046;-62
2022/11/07 11:39:36;;;;;;;23.40;2.53;;;12.60;99.90;;;;;;5012603;28;19928;-61
2022/11/07 11:42:04;;;;;;;16.42;2.30;;;12.60;99.90;;;;;;5011742;28;20383;-64
2022/11/07 11:44:44;;;;;;;15.63;2.60;;;12.60;99.90;;;;;;5025797;28;20046;-64
2022/11/07 11:47:18;;;;;;;35.80;3.90;;;12.60;99.90;;;;;;5028610;28;20045;-61
2022/11/07 11:50:01;;;;;;;18.95;2.42;;;12.70;99.90;;;;;;5015298;28;20038;-60
2022/11/07 11:52:33;;;;;;;11.07;2.00;;;12.70;99.90;;;;;;5025098;28;20088;-61
2022/11/07 11:55:01;;;;;;;16.00;2.08;;;12.80;99.90;;;;;;5018563;28;20050;-62
2022/11/07 11:57:39;;;;;;;13.45;1.83;;;12.80;99.90;;;;;;5013167;28;20486;-62
2022/11/07 12:00:15;;;;;;;19.73;2.70;;;12.90;99.90;;;;;;5010689;28;20053;-60
2022/11/07 12:03:01;;;;;;;18.83;4.38;;;12.90;99.90;;;;;;5024527;28;20592;-64
2022/11/07 12:05:44;;;;;;;11.23;2.78;;;13.00;99.90;;;;;;5010300;28;20041;-63
2022/11/07 12:08:50;;;;;;;16.05;2.75;;;13.00;99.90;;;;;;5023051;28;20053;-64
2022/11/07 12:11:42;;;;;;;13.05;2.28;;;13.00;99.90;;;;;;5008292;28;20857;-64
2022/11/07 12:14:31;;;;;;;10.07;1.98;;;13.00;99.90;;;;;;5013455;28;20049;-66
2022/11/07 12:17:11;;;;;;;11.82;1.92;;;13.00;99.90;;;;;;5011246;28;20401;-62
2022/11/07 12:20:12;;;;;;;10.80;2.55;;;13.00;99.90;;;;;;5027075;28;20042;-63
2022/11/07 12:23:19;;;;;;;8.30;1.85;;;13.10;99.90;;;;;;5014833;28;20440;-63
2022/11/07 12:26:25;;;;;;;8.07;2.45;;;13.10;99.90;;;;;;5009355;28;20042;-67
2022/11/07 12:29:20;;;;;;;9.48;1.40;;;13.10;99.90;;;;;;5022459;28;20056;-63
2022/11/07 12:32:08;;;;;;;13.88;2.00;;;13.10;99.90;;;;;;5024533;28;20064;-65
2022/11/07 12:35:01;;;;;;;10.43;2.05;;;13.20;99.90;;;;;;5024898;28;20042;-65
2022/11/07 12:37:54;;;;;;;6.63;1.35;;;13.20;99.90;;;;;;5019820;28;20061;-73
2022/11/07 12:40:27;;;;;;;8.95;1.60;;;13.20;99.90;;;;;;5008984;28;20037;-73
2022/11/07 12:43:19;;;;;;;8.82;1.88;;;13.30;99.90;;;;;;5010564;28;20049;-64
2022/11/07 12:46:25;;;;;;;10.40;1.95;;;13.30;99.90;;;;;;5030233;28;20090;-73
2022/11/07 12:49:13;;;;;;;8.88;1.98;;;13.30;99.90;;;;;;5028895;28;20056;-70
2022/11/07 12:51:56;;;;;;;7.72;1.58;;;13.40;99.90;;;;;;5017723;28;20045;-73
2022/11/07 12:54:50;;;;;;;11.15;1.52;;;13.40;99.90;;;;;;5028534;28;20058;-73
2022/11/07 12:57:24;;;;;;;9.93;2.28;;;13.40;99.90;;;;;;5029013;28;20496;-73
2022/11/07 13:00:06;;;;;;;10.35;1.85;;;13.40;99.90;;;;;;5029254;28;20470;-65
2022/11/07 13:02:50;;;;;;;12.07;2.53;;;13.40;99.90;;;;;;5019181;28;20056;-69
2022/11/07 13:05:43;;;;;;;13.23;1.90;;;13.40;99.90;;;;;;5030193;28;20053;-66
2022/11/07 13:08:44;;;;;;;7.85;2.13;;;13.50;99.90;;;;;;5018105;28;20136;-70
2022/11/07 13:11:37;;;;;;;12.57;1.90;;;14.00;99.90;;;;;;5029463;28;20046;-66
2022/11/07 13:14:29;;;;;;;4.40;1.30;;;13.80;99.90;;;;;;5013147;28;20415;-65
2022/11/07 13:16:57;;;;;;;9.15;2.60;;;14.10;99.90;;;;;;5009805;28;20037;-63
2022/11/07 13:19:30;;;;;;;8.77;1.63;;;14.40;99.90;;;;;;5028093;28;20049;-63
2022/11/07 13:22:16;;;;;;;11.95;2.55;;;14.50;99.90;;;;;;5019476;28;20065;-66
2022/11/07 13:25:16;;;;;;;5.45;1.58;;;14.70;99.90;;;;;;5025441;28;20053;-73
2022/11/07 13:27:45;;;;;;;;;;;14.60;99.90;;;;;;5029043;28;20080;-66